sensor_id;sensor_type;location;lat;lon;timestamp;P1;durP1;ratioP1;P2;durP2;ratioP2
18249;SDS011;27980;52.126;5.572;2023-02-19T00:01:16;50.50;;;23.88;;
18249;SDS011;27980;52.126;5.572;2023-02-19T00:03:47;44.28;;;21.60;;
18249;SDS011;27980;52.126;5.572;2023-02-19T00:06:15;45.42;;;22.10;;
18249;SDS011;27980;52.126;5.572;2023-02-19T00:08:41;42.28;;;21.25;;
18249;SDS011;27980;52.126;5.572;2023-02-19T00:11:08;39.15;;;19.15;;
18249;SDS011;27980;52.126;5.572;2023-02-19T00:13:36;36.65;;;19.70;;
18249;SDS011;27980;52.126;5.572;2023-02-19T00:16:04;34.08;;;18.08;;
18249;SDS011;27980;52.126;5.572;2023-02-19T00:18:31;31.95;;;17.52;;
18249;SDS011;27980;52.126;5.572;2023-02-19T00:20:57;42.97;;;18.20;;
18249;SDS011;27980;52.126;5.572;2023-02-19T00:23:25;31.33;;;16.48;;
18249;SDS011;27980;52.126;5.572;2023-02-19T00:25:52;34.10;;;16.67;;
18249;SDS011;27980;52.126;5.572;2023-02-19T00:28:18;39.90;;;17.83;;
18249;SDS011;27980;52.126;5.572;2023-02-19T00:30:46;28.25;;;14.80;;
18249;SDS011;27980;52.126;5.572;2023-02-19T00:33:13;28.90;;;13.93;;
18249;SDS011;27980;52.126;5.572;2023-02-19T00:35:40;27.42;;;14.55;;
18249;SDS011;27980;52.126;5.572;2023-02-19T00:38:06;27.45;;;13.77;;
18249;SDS011;27980;52.126;5.572;2023-02-19T00:40:34;26.15;;;13.48;;
18249;SDS011;27980;52.126;5.572;2023-02-19T00:43:01;26.13;;;12.77;;
18249;SDS011;27980;52.126;5.572;2023-02-19T00:45:27;26.33;;;13.35;;
18249;SDS011;27980;52.126;5.572;2023-02-19T00:47:53;30.50;;;13.30;;
18249;SDS011;27980;52.126;5.572;2023-02-19T00:50:20;24.33;;;13.23;;
18249;SDS011;27980;52.126;5.572;2023-02-19T00:52:47;25.60;;;13.88;;
18249;SDS011;27980;52.126;5.572;2023-02-19T00:55:13;24.08;;;13.07;;
18249;SDS011;27980;52.126;5.572;2023-02-19T00:57:44;26.90;;;13.90;;
18249;SDS011;27980;52.126;5.572;2023-02-19T01:00:11;32.15;;;13.88;;
18249;SDS011;27980;52.126;5.572;2023-02-19T01:02:37;24.75;;;13.27;;
18249;SDS011;27980;52.126;5.572;2023-02-19T01:05:04;24.77;;;13.52;;
18249;SDS011;27980;52.126;5.572;2023-02-19T01:07:33;26.40;;;14.50;;
18249;SDS011;27980;52.126;5.572;2023-02-19T01:10:00;24.02;;;13.68;;
18249;SDS011;27980;52.126;5.572;2023-02-19T01:12:27;32.30;;;14.13;;
18249;SDS011;27980;52.126;5.572;2023-02-19T01:14:55;24.65;;;14.40;;
18249;SDS011;27980;52.126;5.572;2023-02-19T01:17:21;32.80;;;15.95;;
18249;SDS011;27980;52.126;5.572;2023-02-19T01:19:48;31.77;;;15.27;;
18249;SDS011;27980;52.126;5.572;2023-02-19T01:22:15;36.15;;;17.25;;
18249;SDS011;27980;52.126;5.572;2023-02-19T01:24:43;30.25;;;15.90;;
18249;SDS011;27980;52.126;5.572;2023-02-19T01:27:10;30.02;;;15.07;;
18249;SDS011;27980;52.126;5.572;2023-02-19T01:29:36;30.83;;;15.65;;
18249;SDS011;27980;52.126;5.572;2023-02-19T01:32:04;29.98;;;15.93;;
18249;SDS011;27980;52.126;5.572;2023-02-19T01:34:31;32.00;;;16.00;;
18249;SDS011;27980;52.126;5.572;2023-02-19T01:36:58;27.55;;;15.82;;
18249;SDS011;27980;52.126;5.572;2023-02-19T01:39:25;28.10;;;15.25;;
18249;SDS011;27980;52.126;5.572;2023-02-19T01:41:51;24.98;;;14.57;;
18249;SDS011;27980;52.126;5.572;2023-02-19T01:47:02;26.27;;;14.90;;
18249;SDS011;27980;52.126;5.572;2023-02-19T01:49:31;25.23;;;14.05;;
18249;SDS011;27980;52.126;5.572;2023-02-19T01:52:02;28.80;;;14.23;;
18249;SDS011;27980;52.126;5.572;2023-02-19T01:54:33;29.10;;;14.82;;
18249;SDS011;27980;52.126;5.572;2023-02-19T01:57:03;24.38;;;13.27;;
18249;SDS011;27980;52.126;5.572;2023-02-19T01:59:30;23.52;;;13.52;;
18249;SDS011;27980;52.126;5.572;2023-02-19T02:01:57;21.73;;;13.48;;
18249;SDS011;27980;52.126;5.572;2023-02-19T02:04:24;29.75;;;13.98;;
18249;SDS011;27980;52.126;5.572;2023-02-19T02:06:53;24.88;;;13.10;;
18249;SDS011;27980;52.126;5.572;2023-02-19T02:09:21;27.08;;;13.38;;
18249;SDS011;27980;52.126;5.572;2023-02-19T02:12:05;25.75;;;13.18;;
18249;SDS011;27980;52.126;5.572;2023-02-19T02:14:33;26.20;;;13.10;;
18249;SDS011;27980;52.126;5.572;2023-02-19T02:17:02;27.08;;;13.00;;
18249;SDS011;27980;52.126;5.572;2023-02-19T02:19:40;29.90;;;13.57;;
18249;SDS011;27980;52.126;5.572;2023-02-19T02:22:10;24.27;;;13.23;;
18249;SDS011;27980;52.126;5.572;2023-02-19T02:32:53;23.38;;;12.32;;
18249;SDS011;27980;52.126;5.572;2023-02-19T02:35:22;30.50;;;14.27;;
18249;SDS011;27980;52.126;5.572;2023-02-19T02:37:50;27.73;;;13.82;;
18249;SDS011;27980;52.126;5.572;2023-02-19T02:40:18;25.60;;;12.85;;
18249;SDS011;27980;52.126;5.572;2023-02-19T02:42:46;25.80;;;13.30;;
18249;SDS011;27980;52.126;5.572;2023-02-19T02:45:23;23.15;;;11.13;;
18249;SDS011;27980;52.126;5.572;2023-02-19T02:50:47;23.88;;;10.35;;
18249;SDS011;27980;52.126;5.572;2023-02-19T02:53:16;18.90;;;10.38;;
18249;SDS011;27980;52.126;5.572;2023-02-19T02:56:01;21.92;;;9.98;;
18249;SDS011;27980;52.126;5.572;2023-02-19T02:58:28;24.90;;;10.05;;
18249;SDS011;27980;52.126;5.572;2023-02-19T03:00:59;22.75;;;10.13;;
18249;SDS011;27980;52.126;5.572;2023-02-19T03:03:44;15.57;;;8.85;;
18249;SDS011;27980;52.126;5.572;2023-02-19T03:06:14;13.43;;;8.15;;
18249;SDS011;27980;52.126;5.572;2023-02-19T03:08:43;18.83;;;8.27;;
18249;SDS011;27980;52.126;5.572;2023-02-19T03:11:12;23.40;;;8.50;;
18249;SDS011;27980;52.126;5.572;2023-02-19T03:13:58;18.25;;;8.30;;
18249;SDS011;27980;52.126;5.572;2023-02-19T03:16:44;25.10;;;7.85;;
18249;SDS011;27980;52.126;5.572;2023-02-19T03:19:29;18.85;;;7.38;;
18249;SDS011;27980;52.126;5.572;2023-02-19T03:21:59;14.60;;;7.60;;
18249;SDS011;27980;52.126;5.572;2023-02-19T03:24:27;15.70;;;7.53;;
18249;SDS011;27980;52.126;5.572;2023-02-19T03:27:13;17.40;;;7.85;;
18249;SDS011;27980;52.126;5.572;2023-02-19T03:29:45;15.82;;;7.70;;
18249;SDS011;27980;52.126;5.572;2023-02-19T03:32:14;14.57;;;7.18;;
18249;SDS011;27980;52.126;5.572;2023-02-19T03:34:43;14.68;;;7.75;;
18249;SDS011;27980;52.126;5.572;2023-02-19T03:37:13;13.05;;;7.82;;
18249;SDS011;27980;52.126;5.572;2023-02-19T03:39:41;20.33;;;8.20;;
18249;SDS011;27980;52.126;5.572;2023-02-19T03:42:12;19.48;;;8.13;;
18249;SDS011;27980;52.126;5.572;2023-02-19T03:44:41;16.73;;;8.50;;
18249;SDS011;27980;52.126;5.572;2023-02-19T03:47:12;16.30;;;8.43;;
18249;SDS011;27980;52.126;5.572;2023-02-19T03:49:41;19.50;;;8.75;;
18249;SDS011;27980;52.126;5.572;2023-02-19T03:52:10;15.98;;;8.55;;
18249;SDS011;27980;52.126;5.572;2023-02-19T03:54:43;14.65;;;8.38;;
18249;SDS011;27980;52.126;5.572;2023-02-19T03:57:13;20.08;;;8.80;;
18249;SDS011;27980;52.126;5.572;2023-02-19T03:59:42;18.30;;;9.15;;
18249;SDS011;27980;52.126;5.572;2023-02-19T04:02:12;16.08;;;8.50;;
18249;SDS011;27980;52.126;5.572;2023-02-19T04:04:40;19.20;;;9.18;;
18249;SDS011;27980;52.126;5.572;2023-02-19T04:07:09;17.40;;;9.43;;
18249;SDS011;27980;52.126;5.572;2023-02-19T04:09:36;20.48;;;9.50;;
18249;SDS011;27980;52.126;5.572;2023-02-19T04:12:07;18.15;;;8.77;;
18249;SDS011;27980;52.126;5.572;2023-02-19T04:14:35;18.85;;;8.35;;
18249;SDS011;27980;52.126;5.572;2023-02-19T04:17:03;17.42;;;8.73;;
18249;SDS011;27980;52.126;5.572;2023-02-19T04:19:31;18.02;;;8.73;;
18249;SDS011;27980;52.126;5.572;2023-02-19T04:21:58;24.85;;;9.73;;
18249;SDS011;27980;52.126;5.572;2023-02-19T04:24:27;17.90;;;8.43;;
18249;SDS011;27980;52.126;5.572;2023-02-19T04:26:55;15.80;;;8.02;;
18249;SDS011;27980;52.126;5.572;2023-02-19T04:29:22;14.10;;;8.40;;
18249;SDS011;27980;52.126;5.572;2023-02-19T04:31:49;15.35;;;8.48;;
18249;SDS011;27980;52.126;5.572;2023-02-19T04:34:16;13.75;;;7.90;;
18249;SDS011;27980;52.126;5.572;2023-02-19T04:36:43;12.52;;;8.05;;
18249;SDS011;27980;52.126;5.572;2023-02-19T04:39:10;14.93;;;8.90;;
18249;SDS011;27980;52.126;5.572;2023-02-19T04:41:37;16.38;;;8.25;;
18249;SDS011;27980;52.126;5.572;2023-02-19T04:44:03;15.35;;;8.45;;
18249;SDS011;27980;52.126;5.572;2023-02-19T04:46:33;16.92;;;8.57;;
18249;SDS011;27980;52.126;5.572;2023-02-19T04:48:59;17.73;;;8.00;;
18249;SDS011;27980;52.126;5.572;2023-02-19T04:51:26;17.33;;;8.70;;
18249;SDS011;27980;52.126;5.572;2023-02-19T04:53:52;19.42;;;9.00;;
18249;SDS011;27980;52.126;5.572;2023-02-19T04:56:20;16.92;;;9.80;;
18249;SDS011;27980;52.126;5.572;2023-02-19T04:58:46;15.88;;;8.85;;
18249;SDS011;27980;52.126;5.572;2023-02-19T05:01:13;18.90;;;9.27;;
18249;SDS011;27980;52.126;5.572;2023-02-19T05:03:41;18.60;;;9.05;;
18249;SDS011;27980;52.126;5.572;2023-02-19T05:06:11;19.67;;;8.77;;
18249;SDS011;27980;52.126;5.572;2023-02-19T05:08:37;18.00;;;8.98;;
18249;SDS011;27980;52.126;5.572;2023-02-19T05:11:05;17.35;;;8.65;;
18249;SDS011;27980;52.126;5.572;2023-02-19T05:13:32;14.13;;;7.68;;
18249;SDS011;27980;52.126;5.572;2023-02-19T05:16:00;20.92;;;8.38;;
18249;SDS011;27980;52.126;5.572;2023-02-19T05:18:27;17.23;;;8.18;;
18249;SDS011;27980;52.126;5.572;2023-02-19T05:20:56;11.77;;;7.90;;
18249;SDS011;27980;52.126;5.572;2023-02-19T05:23:23;21.20;;;9.10;;
18249;SDS011;27980;52.126;5.572;2023-02-19T05:25:49;17.65;;;7.93;;
18249;SDS011;27980;52.126;5.572;2023-02-19T05:28:16;22.98;;;8.88;;
18249;SDS011;27980;52.126;5.572;2023-02-19T05:30:43;16.23;;;8.13;;
18249;SDS011;27980;52.126;5.572;2023-02-19T05:33:10;17.42;;;8.60;;
18249;SDS011;27980;52.126;5.572;2023-02-19T05:35:41;17.77;;;7.93;;
18249;SDS011;27980;52.126;5.572;2023-02-19T05:38:09;13.77;;;7.68;;
18249;SDS011;27980;52.126;5.572;2023-02-19T05:40:36;18.58;;;8.63;;
18249;SDS011;27980;52.126;5.572;2023-02-19T05:43:02;19.27;;;8.02;;
18249;SDS011;27980;52.126;5.572;2023-02-19T05:45:30;20.58;;;8.10;;
18249;SDS011;27980;52.126;5.572;2023-02-19T05:47:57;18.20;;;7.43;;
18249;SDS011;27980;52.126;5.572;2023-02-19T05:50:24;16.30;;;7.40;;
18249;SDS011;27980;52.126;5.572;2023-02-19T05:52:50;15.80;;;7.45;;
18249;SDS011;27980;52.126;5.572;2023-02-19T05:55:19;12.02;;;7.28;;
18249;SDS011;27980;52.126;5.572;2023-02-19T05:57:45;17.73;;;7.18;;
18249;SDS011;27980;52.126;5.572;2023-02-19T06:00:13;16.63;;;7.43;;
18249;SDS011;27980;52.126;5.572;2023-02-19T06:02:40;16.98;;;7.75;;
18249;SDS011;27980;52.126;5.572;2023-02-19T06:05:06;13.90;;;7.10;;
18249;SDS011;27980;52.126;5.572;2023-02-19T06:07:33;13.23;;;8.00;;
18249;SDS011;27980;52.126;5.572;2023-02-19T06:10:03;15.35;;;8.60;;
18249;SDS011;27980;52.126;5.572;2023-02-19T06:12:31;20.42;;;9.57;;
18249;SDS011;27980;52.126;5.572;2023-02-19T06:14:58;19.60;;;10.30;;
18249;SDS011;27980;52.126;5.572;2023-02-19T06:17:24;21.52;;;10.27;;
18249;SDS011;27980;52.126;5.572;2023-02-19T06:19:51;19.13;;;10.50;;
18249;SDS011;27980;52.126;5.572;2023-02-19T06:22:17;26.55;;;11.68;;
18249;SDS011;27980;52.126;5.572;2023-02-19T06:24:43;17.13;;;10.55;;
18249;SDS011;27980;52.126;5.572;2023-02-19T06:27:10;21.45;;;12.90;;
18249;SDS011;27980;52.126;5.572;2023-02-19T06:29:38;22.83;;;12.65;;
18249;SDS011;27980;52.126;5.572;2023-02-19T06:32:05;29.65;;;13.52;;
18249;SDS011;27980;52.126;5.572;2023-02-19T06:34:31;24.27;;;13.50;;
18249;SDS011;27980;52.126;5.572;2023-02-19T06:36:58;26.00;;;13.50;;
18249;SDS011;27980;52.126;5.572;2023-02-19T06:39:25;26.90;;;13.35;;
18249;SDS011;27980;52.126;5.572;2023-02-19T06:41:53;21.88;;;13.75;;
18249;SDS011;27980;52.126;5.572;2023-02-19T06:44:20;26.08;;;13.68;;
18249;SDS011;27980;52.126;5.572;2023-02-19T06:46:48;21.63;;;14.52;;
18249;SDS011;27980;52.126;5.572;2023-02-19T06:49:14;27.38;;;14.18;;
18249;SDS011;27980;52.126;5.572;2023-02-19T06:51:41;26.65;;;14.15;;
18249;SDS011;27980;52.126;5.572;2023-02-19T06:54:07;25.48;;;14.18;;
18249;SDS011;27980;52.126;5.572;2023-02-19T06:56:36;29.67;;;14.63;;
18249;SDS011;27980;52.126;5.572;2023-02-19T06:59:04;33.00;;;17.10;;
18249;SDS011;27980;52.126;5.572;2023-02-19T07:01:32;30.35;;;17.13;;
18249;SDS011;27980;52.126;5.572;2023-02-19T07:04:00;31.17;;;17.83;;
18249;SDS011;27980;52.126;5.572;2023-02-19T07:06:27;31.48;;;17.77;;
18249;SDS011;27980;52.126;5.572;2023-02-19T07:08:56;27.38;;;16.95;;
18249;SDS011;27980;52.126;5.572;2023-02-19T07:11:23;26.95;;;16.60;;
18249;SDS011;27980;52.126;5.572;2023-02-19T07:13:52;27.73;;;16.08;;
18249;SDS011;27980;52.126;5.572;2023-02-19T07:16:19;29.85;;;18.27;;
18249;SDS011;27980;52.126;5.572;2023-02-19T07:18:45;27.55;;;17.27;;
18249;SDS011;27980;52.126;5.572;2023-02-19T07:21:14;34.25;;;18.50;;
18249;SDS011;27980;52.126;5.572;2023-02-19T07:23:41;37.17;;;18.48;;
18249;SDS011;27980;52.126;5.572;2023-02-19T07:26:08;33.63;;;20.20;;
18249;SDS011;27980;52.126;5.572;2023-02-19T07:28:34;34.97;;;18.80;;
18249;SDS011;27980;52.126;5.572;2023-02-19T07:31:02;32.92;;;18.80;;
18249;SDS011;27980;52.126;5.572;2023-02-19T07:33:29;30.65;;;17.65;;
18249;SDS011;27980;52.126;5.572;2023-02-19T07:35:56;28.00;;;18.27;;
18249;SDS011;27980;52.126;5.572;2023-02-19T07:38:24;33.90;;;17.60;;
18249;SDS011;27980;52.126;5.572;2023-02-19T07:40:51;31.23;;;18.38;;
18249;SDS011;27980;52.126;5.572;2023-02-19T07:43:17;31.25;;;17.92;;
18249;SDS011;27980;52.126;5.572;2023-02-19T07:45:44;33.67;;;17.25;;
18249;SDS011;27980;52.126;5.572;2023-02-19T07:48:10;30.05;;;18.65;;
18249;SDS011;27980;52.126;5.572;2023-02-19T07:50:37;32.67;;;18.90;;
18249;SDS011;27980;52.126;5.572;2023-02-19T07:53:03;31.92;;;18.65;;
18249;SDS011;27980;52.126;5.572;2023-02-19T07:55:31;30.73;;;18.17;;
18249;SDS011;27980;52.126;5.572;2023-02-19T07:57:58;32.17;;;18.50;;
18249;SDS011;27980;52.126;5.572;2023-02-19T08:00:24;37.47;;;17.90;;
18249;SDS011;27980;52.126;5.572;2023-02-19T08:02:51;32.95;;;17.90;;
18249;SDS011;27980;52.126;5.572;2023-02-19T08:05:25;28.52;;;16.52;;
18249;SDS011;27980;52.126;5.572;2023-02-19T08:07:51;31.27;;;16.90;;
18249;SDS011;27980;52.126;5.572;2023-02-19T08:10:18;31.10;;;16.58;;
18249;SDS011;27980;52.126;5.572;2023-02-19T08:13:03;30.15;;;16.08;;
18249;SDS011;27980;52.126;5.572;2023-02-19T08:15:47;30.60;;;15.25;;
18249;SDS011;27980;52.126;5.572;2023-02-19T08:18:14;27.65;;;15.25;;
18249;SDS011;27980;52.126;5.572;2023-02-19T08:20:41;30.85;;;15.85;;
18249;SDS011;27980;52.126;5.572;2023-02-19T08:23:07;31.65;;;13.82;;
18249;SDS011;27980;52.126;5.572;2023-02-19T08:25:34;26.58;;;14.50;;
18249;SDS011;27980;52.126;5.572;2023-02-19T08:28:01;25.77;;;14.48;;
18249;SDS011;27980;52.126;5.572;2023-02-19T08:30:29;30.77;;;15.73;;
18249;SDS011;27980;52.126;5.572;2023-02-19T08:32:56;28.90;;;16.38;;
18249;SDS011;27980;52.126;5.572;2023-02-19T08:35:23;31.63;;;14.93;;
18249;SDS011;27980;52.126;5.572;2023-02-19T08:37:49;22.48;;;15.65;;
18249;SDS011;27980;52.126;5.572;2023-02-19T08:40:16;25.00;;;15.80;;
18249;SDS011;27980;52.126;5.572;2023-02-19T08:42:42;30.65;;;15.98;;
18249;SDS011;27980;52.126;5.572;2023-02-19T08:45:09;31.70;;;16.67;;
18249;SDS011;27980;52.126;5.572;2023-02-19T08:47:36;28.02;;;14.98;;
18249;SDS011;27980;52.126;5.572;2023-02-19T08:50:03;27.52;;;14.38;;
18249;SDS011;27980;52.126;5.572;2023-02-19T08:52:30;28.05;;;14.57;;
18249;SDS011;27980;52.126;5.572;2023-02-19T08:54:56;26.27;;;14.13;;
18249;SDS011;27980;52.126;5.572;2023-02-19T08:57:23;25.08;;;14.98;;
18249;SDS011;27980;52.126;5.572;2023-02-19T08:59:50;22.35;;;14.50;;
18249;SDS011;27980;52.126;5.572;2023-02-19T09:02:16;24.67;;;14.85;;
18249;SDS011;27980;52.126;5.572;2023-02-19T09:04:44;28.27;;;15.02;;
18249;SDS011;27980;52.126;5.572;2023-02-19T09:07:11;27.63;;;15.40;;
18249;SDS011;27980;52.126;5.572;2023-02-19T09:09:37;22.95;;;14.73;;
18249;SDS011;27980;52.126;5.572;2023-02-19T09:12:05;21.30;;;14.57;;
18249;SDS011;27980;52.126;5.572;2023-02-19T09:14:32;20.95;;;14.18;;
18249;SDS011;27980;52.126;5.572;2023-02-19T09:16:59;21.73;;;14.45;;
18249;SDS011;27980;52.126;5.572;2023-02-19T09:19:25;21.25;;;14.35;;
18249;SDS011;27980;52.126;5.572;2023-02-19T09:21:53;22.65;;;14.55;;
18249;SDS011;27980;52.126;5.572;2023-02-19T09:24:20;23.42;;;15.05;;
18249;SDS011;27980;52.126;5.572;2023-02-19T09:26:47;21.42;;;15.60;;
18249;SDS011;27980;52.126;5.572;2023-02-19T09:29:14;27.88;;;16.13;;
18249;SDS011;27980;52.126;5.572;2023-02-19T09:31:40;25.77;;;16.20;;
18249;SDS011;27980;52.126;5.572;2023-02-19T09:34:07;21.92;;;16.17;;
18249;SDS011;27980;52.126;5.572;2023-02-19T09:36:33;24.05;;;16.60;;
18249;SDS011;27980;52.126;5.572;2023-02-19T09:39:04;28.55;;;16.58;;
18249;SDS011;27980;52.126;5.572;2023-02-19T09:41:32;24.40;;;16.88;;
18249;SDS011;27980;52.126;5.572;2023-02-19T09:43:59;28.25;;;17.30;;
18249;SDS011;27980;52.126;5.572;2023-02-19T09:46:27;30.30;;;17.70;;
18249;SDS011;27980;52.126;5.572;2023-02-19T09:48:56;30.63;;;17.75;;
18249;SDS011;27980;52.126;5.572;2023-02-19T09:51:24;24.13;;;17.25;;
18249;SDS011;27980;52.126;5.572;2023-02-19T09:53:52;23.85;;;18.08;;
18249;SDS011;27980;52.126;5.572;2023-02-19T09:56:21;31.80;;;18.05;;
18249;SDS011;27980;52.126;5.572;2023-02-19T09:58:49;20.92;;;12.00;;
18249;SDS011;27980;52.126;5.572;2023-02-19T10:01:16;15.52;;;10.38;;
18249;SDS011;27980;52.126;5.572;2023-02-19T10:03:43;12.32;;;7.82;;
18249;SDS011;27980;52.126;5.572;2023-02-19T10:06:13;9.23;;;6.15;;
18249;SDS011;27980;52.126;5.572;2023-02-19T10:08:43;6.10;;;4.78;;
18249;SDS011;27980;52.126;5.572;2023-02-19T10:11:11;6.70;;;4.43;;
18249;SDS011;27980;52.126;5.572;2023-02-19T10:13:40;7.30;;;4.03;;
18249;SDS011;27980;52.126;5.572;2023-02-19T10:16:11;6.72;;;4.07;;
18249;SDS011;27980;52.126;5.572;2023-02-19T10:18:40;6.95;;;3.88;;
18249;SDS011;27980;52.126;5.572;2023-02-19T10:21:09;5.93;;;3.72;;
18249;SDS011;27980;52.126;5.572;2023-02-19T10:23:38;5.38;;;3.53;;
18249;SDS011;27980;52.126;5.572;2023-02-19T10:26:04;6.00;;;3.85;;
18249;SDS011;27980;52.126;5.572;2023-02-19T10:28:32;5.35;;;3.33;;
18249;SDS011;27980;52.126;5.572;2023-02-19T10:31:01;6.88;;;3.33;;
18249;SDS011;27980;52.126;5.572;2023-02-19T10:33:28;6.50;;;3.42;;
18249;SDS011;27980;52.126;5.572;2023-02-19T10:35:55;5.05;;;3.42;;
18249;SDS011;27980;52.126;5.572;2023-02-19T10:38:23;4.95;;;3.80;;
18249;SDS011;27980;52.126;5.572;2023-02-19T10:40:56;8.90;;;5.88;;
18249;SDS011;27980;52.126;5.572;2023-02-19T10:43:24;7.22;;;4.93;;
18249;SDS011;27980;52.126;5.572;2023-02-19T10:45:57;7.70;;;4.38;;
18249;SDS011;27980;52.126;5.572;2023-02-19T10:48:28;7.57;;;3.92;;
18249;SDS011;27980;52.126;5.572;2023-02-19T10:50:56;5.45;;;3.20;;
18249;SDS011;27980;52.126;5.572;2023-02-19T10:53:36;4.10;;;2.72;;
18249;SDS011;27980;52.126;5.572;2023-02-19T10:56:05;5.63;;;3.50;;
18249;SDS011;27980;52.126;5.572;2023-02-19T10:58:32;5.78;;;3.47;;
18249;SDS011;27980;52.126;5.572;2023-02-19T11:01:08;6.07;;;3.30;;
18249;SDS011;27980;52.126;5.572;2023-02-19T11:03:36;4.70;;;3.40;;
18249;SDS011;27980;52.126;5.572;2023-02-19T11:06:05;5.38;;;3.35;;
18249;SDS011;27980;52.126;5.572;2023-02-19T11:08:35;5.70;;;3.50;;
18249;SDS011;27980;52.126;5.572;2023-02-19T11:11:06;4.35;;;3.40;;
18249;SDS011;27980;52.126;5.572;2023-02-19T11:13:33;3.90;;;2.88;;
18249;SDS011;27980;52.126;5.572;2023-02-19T11:16:02;4.18;;;3.33;;
18249;SDS011;27980;52.126;5.572;2023-02-19T11:18:29;4.32;;;2.83;;
18249;SDS011;27980;52.126;5.572;2023-02-19T11:20:58;4.03;;;2.70;;
18249;SDS011;27980;52.126;5.572;2023-02-19T11:23:26;5.50;;;3.33;;
18249;SDS011;27980;52.126;5.572;2023-02-19T11:25:56;3.20;;;2.83;;
18249;SDS011;27980;52.126;5.572;2023-02-19T11:28:26;5.22;;;3.10;;
18249;SDS011;27980;52.126;5.572;2023-02-19T11:30:53;4.15;;;2.72;;
18249;SDS011;27980;52.126;5.572;2023-02-19T11:33:21;5.13;;;2.90;;
18249;SDS011;27980;52.126;5.572;2023-02-19T11:35:49;3.63;;;2.60;;
18249;SDS011;27980;52.126;5.572;2023-02-19T11:38:19;3.83;;;2.90;;
18249;SDS011;27980;52.126;5.572;2023-02-19T11:40:48;3.63;;;3.08;;
18249;SDS011;27980;52.126;5.572;2023-02-19T11:43:22;5.45;;;3.05;;
18249;SDS011;27980;52.126;5.572;2023-02-19T11:45:51;4.68;;;3.38;;
18249;SDS011;27980;52.126;5.572;2023-02-19T11:48:31;4.50;;;3.28;;
18249;SDS011;27980;52.126;5.572;2023-02-19T11:51:09;4.97;;;3.60;;
18249;SDS011;27980;52.126;5.572;2023-02-19T11:53:42;4.75;;;3.00;;
18249;SDS011;27980;52.126;5.572;2023-02-19T11:56:13;3.15;;;2.03;;
18249;SDS011;27980;52.126;5.572;2023-02-19T11:58:52;2.85;;;1.80;;
18249;SDS011;27980;52.126;5.572;2023-02-19T12:01:21;3.47;;;1.80;;
18249;SDS011;27980;52.126;5.572;2023-02-19T12:03:55;2.47;;;1.90;;
18249;SDS011;27980;52.126;5.572;2023-02-19T12:06:34;3.22;;;2.33;;
18249;SDS011;27980;52.126;5.572;2023-02-19T12:09:13;2.85;;;2.47;;
18249;SDS011;27980;52.126;5.572;2023-02-19T12:11:49;3.30;;;2.70;;
18249;SDS011;27980;52.126;5.572;2023-02-19T12:14:35;3.13;;;2.83;;
18249;SDS011;27980;52.126;5.572;2023-02-19T12:17:09;3.47;;;3.00;;
18249;SDS011;27980;52.126;5.572;2023-02-19T12:19:44;3.58;;;3.00;;
18249;SDS011;27980;52.126;5.572;2023-02-19T12:22:17;3.30;;;3.00;;
18249;SDS011;27980;52.126;5.572;2023-02-19T12:25:00;5.20;;;3.55;;
18249;SDS011;27980;52.126;5.572;2023-02-19T12:27:32;4.72;;;3.60;;
18249;SDS011;27980;52.126;5.572;2023-02-19T12:30:10;3.60;;;3.30;;
18249;SDS011;27980;52.126;5.572;2023-02-19T12:32:46;3.78;;;3.38;;
18249;SDS011;27980;52.126;5.572;2023-02-19T12:35:19;3.22;;;2.92;;
18249;SDS011;27980;52.126;5.572;2023-02-19T12:37:50;6.32;;;3.80;;
18249;SDS011;27980;52.126;5.572;2023-02-19T12:40:23;3.70;;;3.10;;
18249;SDS011;27980;52.126;5.572;2023-02-19T12:42:55;5.53;;;3.08;;
18249;SDS011;27980;52.126;5.572;2023-02-19T12:45:27;3.40;;;3.10;;
18249;SDS011;27980;52.126;5.572;2023-02-19T12:47:56;4.22;;;3.10;;
18249;SDS011;27980;52.126;5.572;2023-02-19T12:50:25;3.70;;;3.03;;
18249;SDS011;27980;52.126;5.572;2023-02-19T12:52:52;3.17;;;2.88;;
18249;SDS011;27980;52.126;5.572;2023-02-19T12:55:23;3.50;;;3.15;;
18249;SDS011;27980;52.126;5.572;2023-02-19T12:57:52;3.45;;;2.60;;
18249;SDS011;27980;52.126;5.572;2023-02-19T13:00:24;2.70;;;2.50;;
18249;SDS011;27980;52.126;5.572;2023-02-19T13:02:54;3.63;;;2.35;;
18249;SDS011;27980;52.126;5.572;2023-02-19T13:05:25;2.38;;;2.17;;
18249;SDS011;27980;52.126;5.572;2023-02-19T13:07:57;3.60;;;2.50;;
18249;SDS011;27980;52.126;5.572;2023-02-19T13:10:26;2.35;;;2.15;;
18249;SDS011;27980;52.126;5.572;2023-02-19T13:12:54;2.88;;;2.42;;
18249;SDS011;27980;52.126;5.572;2023-02-19T13:15:23;5.00;;;2.60;;
18249;SDS011;27980;52.126;5.572;2023-02-19T13:17:52;3.45;;;2.40;;
18249;SDS011;27980;52.126;5.572;2023-02-19T13:20:21;3.78;;;2.60;;
18249;SDS011;27980;52.126;5.572;2023-02-19T13:22:51;3.20;;;2.50;;
18249;SDS011;27980;52.126;5.572;2023-02-19T13:28:28;2.90;;;2.15;;
18249;SDS011;27980;52.126;5.572;2023-02-19T13:31:06;2.42;;;2.22;;
18249;SDS011;27980;52.126;5.572;2023-02-19T13:33:38;3.83;;;2.47;;
18249;SDS011;27980;52.126;5.572;2023-02-19T13:36:11;3.25;;;2.35;;
18249;SDS011;27980;52.126;5.572;2023-02-19T13:38:38;2.63;;;2.35;;
18249;SDS011;27980;52.126;5.572;2023-02-19T13:41:14;4.60;;;2.17;;
18249;SDS011;27980;52.126;5.572;2023-02-19T13:43:42;2.45;;;2.03;;
18249;SDS011;27980;52.126;5.572;2023-02-19T13:46:11;3.28;;;2.35;;
18249;SDS011;27980;52.126;5.572;2023-02-19T13:48:38;2.30;;;1.90;;
18249;SDS011;27980;52.126;5.572;2023-02-19T13:53:57;3.63;;;2.20;;
18249;SDS011;27980;52.126;5.572;2023-02-19T13:56:38;3.05;;;2.30;;
18249;SDS011;27980;52.126;5.572;2023-02-19T13:59:24;3.28;;;2.00;;
18249;SDS011;27980;52.126;5.572;2023-02-19T14:02:04;2.03;;;1.80;;
18249;SDS011;27980;52.126;5.572;2023-02-19T14:04:40;2.58;;;2.35;;
18249;SDS011;27980;52.126;5.572;2023-02-19T14:09:51;2.72;;;2.40;;
18249;SDS011;27980;52.126;5.572;2023-02-19T14:12:20;3.13;;;2.20;;
18249;SDS011;27980;52.126;5.572;2023-02-19T14:14:47;3.22;;;2.00;;
18249;SDS011;27980;52.126;5.572;2023-02-19T14:17:26;2.35;;;2.15;;
18249;SDS011;27980;52.126;5.572;2023-02-19T14:19:59;2.10;;;1.88;;
18249;SDS011;27980;52.126;5.572;2023-02-19T14:22:45;2.50;;;1.98;;
18249;SDS011;27980;52.126;5.572;2023-02-19T14:25:19;2.42;;;1.70;;
18249;SDS011;27980;52.126;5.572;2023-02-19T14:27:50;3.47;;;2.08;;
18249;SDS011;27980;52.126;5.572;2023-02-19T14:30:17;2.47;;;2.00;;
18249;SDS011;27980;52.126;5.572;2023-02-19T14:32:44;2.08;;;1.88;;
18249;SDS011;27980;52.126;5.572;2023-02-19T14:35:16;1.60;;;1.48;;
18249;SDS011;27980;52.126;5.572;2023-02-19T14:37:43;1.88;;;1.33;;
18249;SDS011;27980;52.126;5.572;2023-02-19T14:40:11;2.15;;;1.33;;
18249;SDS011;27980;52.126;5.572;2023-02-19T14:42:42;2.58;;;1.50;;
18249;SDS011;27980;52.126;5.572;2023-02-19T14:45:12;1.65;;;1.30;;
18249;SDS011;27980;52.126;5.572;2023-02-19T14:47:40;1.50;;;1.40;;
18249;SDS011;27980;52.126;5.572;2023-02-19T14:50:08;1.52;;;1.42;;
18249;SDS011;27980;52.126;5.572;2023-02-19T14:52:39;1.48;;;1.33;;
18249;SDS011;27980;52.126;5.572;2023-02-19T14:55:09;1.90;;;1.40;;
18249;SDS011;27980;52.126;5.572;2023-02-19T14:57:42;4.32;;;1.60;;
18249;SDS011;27980;52.126;5.572;2023-02-19T15:00:21;1.92;;;1.65;;
18249;SDS011;27980;52.126;5.572;2023-02-19T15:02:48;2.13;;;1.77;;
18249;SDS011;27980;52.126;5.572;2023-02-19T15:05:15;1.60;;;1.50;;
18249;SDS011;27980;52.126;5.572;2023-02-19T15:07:42;1.58;;;1.40;;